createdAt,value
2022-10-28T00:00:07.299Z,15.71
2022-10-28T00:02:33.915Z,15.58
2022-10-28T00:05:00.361Z,15.61
2022-10-28T00:07:28.636Z,15.78
2022-10-28T00:09:55.170Z,15.67
2022-10-28T00:12:21.709Z,15.73
2022-10-28T00:14:48.213Z,15.63
2022-10-28T00:17:14.945Z,15.65
2022-10-28T00:19:41.418Z,15.66
2022-10-28T00:22:07.850Z,15.66
2022-10-28T00:24:34.297Z,15.57
2022-10-28T00:27:00.777Z,15.72
2022-10-28T00:29:27.235Z,15.64
2022-10-28T00:31:53.708Z,15.64
2022-10-28T00:34:23.569Z,15.69
2022-10-28T00:36:50.045Z,15.63
2022-10-28T00:39:19.341Z,15.62
2022-10-28T00:41:49.387Z,15.54
2022-10-28T00:44:43.839Z,15.42
2022-10-28T00:47:38.285Z,15.53
2022-10-28T00:50:19.753Z,15.47
2022-10-28T00:52:50.524Z,15.56
2022-10-28T00:55:18.401Z,15.61
2022-10-28T00:57:46.133Z,15.66
2022-10-28T01:00:13.329Z,15.64
2022-10-28T01:02:50.031Z,15.50
2022-10-28T01:05:21.299Z,15.39
2022-10-28T01:07:50.232Z,15.40
2022-10-28T01:10:17.278Z,15.48
2022-10-28T01:13:04.995Z,15.42
2022-10-28T01:15:54.126Z,15.40
2022-10-28T01:18:49.082Z,15.34
2022-10-28T01:21:24.312Z,15.43
2022-10-28T01:24:15.462Z,15.43
2022-10-28T01:27:08.474Z,15.37
2022-10-28T01:29:44.208Z,15.44
2022-10-28T01:32:49.862Z,15.42
2022-10-28T01:38:28.609Z,15.48
2022-10-28T01:41:18.348Z,15.36
2022-10-28T01:43:44.702Z,15.32
2022-10-28T01:46:38.780Z,15.38
2022-10-28T01:49:18.340Z,15.35
2022-10-28T01:51:48.609Z,15.38
2022-10-28T01:54:19.367Z,15.40
2022-10-28T01:56:48.187Z,15.45
2022-10-28T01:59:22.461Z,15.50
2022-10-28T02:01:49.048Z,15.50
2022-10-28T02:04:15.585Z,15.49
2022-10-28T02:06:45.329Z,15.23
2022-10-28T02:09:33.245Z,15.30
2022-10-28T02:12:08.582Z,15.23
2022-10-28T02:14:47.120Z,15.35
2022-10-28T02:17:38.837Z,15.38
2022-10-28T02:20:22.447Z,15.41
2022-10-28T02:23:12.224Z,15.41
2022-10-28T02:25:58.922Z,15.39
2022-10-28T02:28:39.298Z,15.31
2022-10-28T02:31:34.491Z,15.41
2022-10-28T02:34:07.625Z,15.23
2022-10-28T02:36:39.511Z,15.19
2022-10-28T02:39:07.525Z,15.11
2022-10-28T02:41:46.056Z,14.98
2022-10-28T02:44:18.603Z,15.05
2022-10-28T02:46:49.770Z,14.98
2022-10-28T02:49:16.294Z,14.80
2022-10-28T02:51:48.979Z,14.97
2022-10-28T02:54:19.193Z,14.88
2022-10-28T02:56:55.079Z,14.83
2022-10-28T02:59:24.830Z,14.91
2022-10-28T03:01:51.728Z,14.91
2022-10-28T03:04:18.304Z,14.95
2022-10-28T03:06:44.729Z,15.10
2022-10-28T03:09:11.198Z,15.11
2022-10-28T03:11:37.676Z,15.08
2022-10-28T03:14:04.179Z,15.01
2022-10-28T03:16:30.782Z,14.71
2022-10-28T03:18:57.328Z,14.87
2022-10-28T03:21:23.944Z,14.80
2022-10-28T03:23:50.440Z,14.72
2022-10-28T03:26:16.943Z,14.85
2022-10-28T03:28:43.398Z,14.78
2022-10-28T03:31:09.867Z,14.77
2022-10-28T03:33:36.301Z,14.66
2022-10-28T03:36:02.754Z,14.73
2022-10-28T03:38:29.231Z,14.65
2022-10-28T03:40:55.663Z,14.77
2022-10-28T03:43:22.283Z,14.66
2022-10-28T03:45:49.073Z,14.59
2022-10-28T03:48:15.622Z,14.50
2022-10-28T03:50:42.073Z,14.64
2022-10-28T03:53:08.657Z,14.76
2022-10-28T03:55:35.126Z,14.70
2022-10-28T03:58:02.226Z,14.74
2022-10-28T04:00:29.526Z,14.76
2022-10-28T04:02:56.378Z,14.83
2022-10-28T04:05:23.131Z,14.77
2022-10-28T04:07:49.658Z,14.73
2022-10-28T04:10:16.222Z,14.69
2022-10-28T04:12:42.672Z,14.48
2022-10-28T04:15:09.187Z,14.45
2022-10-28T04:17:35.700Z,14.39
2022-10-28T04:20:02.180Z,14.31
2022-10-28T04:22:28.647Z,14.22
2022-10-28T04:24:55.147Z,14.45
2022-10-28T04:27:21.865Z,14.36
2022-10-28T04:29:48.312Z,14.46
2022-10-28T04:32:14.711Z,14.54
2022-10-28T04:34:41.127Z,14.53
2022-10-28T04:37:07.564Z,14.65
2022-10-28T04:39:33.991Z,14.51
2022-10-28T04:42:00.505Z,14.62
2022-10-28T04:44:26.925Z,14.65
2022-10-28T04:46:56.441Z,14.64
2022-10-28T04:49:22.915Z,14.47
2022-10-28T04:51:49.351Z,14.52
2022-10-28T04:54:15.799Z,14.55
2022-10-28T04:56:42.410Z,14.62
2022-10-28T04:59:08.864Z,14.56
2022-10-28T05:01:36.015Z,14.57
2022-10-28T05:04:02.633Z,14.72
2022-10-28T05:06:29.119Z,14.66
2022-10-28T05:08:55.772Z,14.72
2022-10-28T05:11:22.441Z,14.77
2022-10-28T05:13:48.954Z,14.89
2022-10-28T05:16:15.580Z,14.84
2022-10-28T05:18:42.135Z,14.75
2022-10-28T05:21:08.722Z,14.78
2022-10-28T05:23:35.275Z,14.91
2022-10-28T05:26:01.777Z,14.95
2022-10-28T05:28:28.304Z,15.01
2022-10-28T05:30:54.722Z,14.97
2022-10-28T05:33:21.504Z,15.15
2022-10-28T05:35:48.111Z,15.07
2022-10-28T05:38:14.836Z,15.03
2022-10-28T05:40:41.655Z,14.90
2022-10-28T05:43:09.644Z,14.78
2022-10-28T05:45:36.421Z,14.86
2022-10-28T05:48:03.197Z,14.78
2022-10-28T05:50:29.886Z,14.94
2022-10-28T05:52:57.330Z,14.88
2022-10-28T05:55:28.227Z,15.00
2022-10-28T05:57:55.817Z,14.82
2022-10-28T06:00:25.642Z,14.76
2022-10-28T06:02:52.451Z,14.74
2022-10-28T06:05:19.278Z,14.65
2022-10-28T06:07:45.717Z,14.64
2022-10-28T06:10:12.250Z,14.74
2022-10-28T06:12:37.513Z,14.96
2022-10-28T06:15:04.351Z,14.95
2022-10-28T06:17:30.826Z,14.96
2022-10-28T06:19:57.251Z,15.08
2022-10-28T06:22:23.728Z,15.12
2022-10-28T06:24:50.144Z,15.13
2022-10-28T06:27:16.613Z,15.06
2022-10-28T06:29:43.153Z,15.01
2022-10-28T06:32:09.633Z,14.91
2022-10-28T06:34:37.754Z,14.86
2022-10-28T06:37:05.679Z,14.78
2022-10-28T06:39:32.727Z,14.82
2022-10-28T06:41:59.400Z,14.87
2022-10-28T06:44:26.072Z,14.90
2022-10-28T06:46:54.088Z,14.92
2022-10-28T06:49:20.608Z,14.96
2022-10-28T06:51:47.066Z,14.99
2022-10-28T06:54:13.570Z,15.07
2022-10-28T06:56:39.994Z,15.07
2022-10-28T06:59:07.690Z,15.17
2022-10-28T07:01:34.398Z,15.24
2022-10-28T07:04:00.973Z,15.37
2022-10-28T07:06:27.413Z,15.31
2022-10-28T07:08:53.866Z,15.41
2022-10-28T07:11:20.404Z,15.43
2022-10-28T07:13:48.919Z,15.36
2022-10-28T07:16:15.656Z,15.37
2022-10-28T07:18:42.179Z,15.35
2022-10-28T07:21:08.637Z,15.46
2022-10-28T07:23:35.177Z,15.48
2022-10-28T07:26:01.701Z,15.45
2022-10-28T07:28:29.398Z,15.56
2022-10-28T07:31:01.088Z,15.51
2022-10-28T07:33:30.325Z,15.56
2022-10-28T07:35:56.999Z,15.68
2022-10-28T07:38:23.481Z,15.67
2022-10-28T07:40:49.947Z,15.81
2022-10-28T07:43:16.416Z,15.87
2022-10-28T07:45:43.045Z,16.04
2022-10-28T07:48:09.752Z,16.09
2022-10-28T07:50:36.309Z,16.16
2022-10-28T07:53:02.876Z,16.15
2022-10-28T07:55:29.395Z,16.08
2022-10-28T07:57:56.267Z,16.00
2022-10-28T08:00:23.179Z,16.00
2022-10-28T08:02:49.654Z,15.93
2022-10-28T08:05:16.309Z,15.94
2022-10-28T08:07:42.837Z,15.82
2022-10-28T08:10:09.613Z,15.82
2022-10-28T08:12:36.075Z,15.90
2022-10-28T08:15:02.944Z,15.90
2022-10-28T08:17:29.896Z,15.95
2022-10-28T08:19:56.456Z,15.95
2022-10-28T08:22:23.035Z,16.03
2022-10-28T08:24:49.507Z,16.00
2022-10-28T08:27:15.969Z,16.10
2022-10-28T08:29:42.401Z,16.24
2022-10-28T08:32:09.396Z,16.29
2022-10-28T08:34:37.961Z,16.26
2022-10-28T08:37:07.470Z,16.30
2022-10-28T08:39:33.951Z,16.28
2022-10-28T08:42:28.942Z,16.35
2022-10-28T08:45:37.182Z,16.27
2022-10-28T08:48:21.101Z,16.43
2022-10-28T08:50:55.674Z,16.44
2022-10-28T08:53:31.947Z,16.51
2022-10-28T08:56:09.718Z,16.57
2022-10-28T08:58:39.162Z,16.54
2022-10-28T09:01:13.925Z,16.53
2022-10-28T09:03:43.923Z,16.66
2022-10-28T09:06:10.957Z,16.76
2022-10-28T09:08:43.431Z,16.87
2022-10-28T09:11:26.293Z,16.93
2022-10-28T09:14:04.257Z,17.06
2022-10-28T09:16:48.501Z,17.19
2022-10-28T09:19:35.504Z,17.26
2022-10-28T09:22:22.488Z,17.41
2022-10-28T09:25:00.710Z,17.45
2022-10-28T09:27:53.183Z,17.57
2022-10-28T09:30:41.012Z,17.58
2022-10-28T09:33:07.544Z,17.68
2022-10-28T09:35:41.282Z,17.70
2022-10-28T09:38:16.762Z,17.71
2022-10-28T09:40:50.066Z,17.53
2022-10-28T09:43:25.432Z,17.50
2022-10-28T09:45:56.897Z,17.35
2022-10-28T09:48:27.718Z,17.15
2022-10-28T09:50:56.936Z,17.19
2022-10-28T09:53:44.918Z,16.99
2022-10-28T09:56:11.470Z,16.99
2022-10-28T09:58:43.342Z,17.10
2022-10-28T10:01:09.898Z,17.25
2022-10-28T10:03:36.400Z,17.43
2022-10-28T10:06:26.061Z,17.71
2022-10-28T10:08:55.985Z,17.90
2022-10-28T10:11:29.609Z,18.31
2022-10-28T10:13:58.709Z,18.62
2022-10-28T10:16:42.814Z,19.62
2022-10-28T10:19:11.312Z,20.83
2022-10-28T10:21:43.966Z,21.77
2022-10-28T10:24:31.622Z,22.63
2022-10-28T10:27:02.115Z,22.62
2022-10-28T10:29:30.156Z,22.26
2022-10-28T10:32:25.111Z,22.25
2022-10-28T10:35:01.690Z,22.96
2022-10-28T10:37:30.329Z,23.92
2022-10-28T10:40:25.263Z,25.60
2022-10-28T10:43:12.809Z,24.10
2022-10-28T10:45:39.375Z,23.49
2022-10-28T10:48:14.693Z,22.70
2022-10-28T10:50:43.662Z,22.04
2022-10-28T10:53:37.935Z,21.73
2022-10-28T10:56:08.384Z,21.47
2022-10-28T10:58:38.650Z,21.15
2022-10-28T11:01:07.575Z,20.41
2022-10-28T11:03:46.304Z,20.47
2022-10-28T11:06:24.767Z,20.46
2022-10-28T11:08:57.919Z,20.48
2022-10-28T11:11:33.454Z,20.54
2022-10-28T11:14:24.429Z,20.67
2022-10-28T11:16:59.517Z,20.71
2022-10-28T11:19:37.366Z,20.77
2022-10-28T11:22:18.193Z,20.90
2022-10-28T11:25:11.242Z,20.98
2022-10-28T11:27:43.448Z,21.19
2022-10-28T11:30:17.113Z,21.15
2022-10-28T11:33:01.905Z,21.07
2022-10-28T11:36:07.975Z,20.83
2022-10-28T11:38:57.849Z,20.73
2022-10-28T11:41:33.235Z,20.83
2022-10-28T11:44:04.958Z,21.10
2022-10-28T11:47:16.867Z,21.10
2022-10-28T11:50:18.052Z,20.89
2022-10-28T11:53:11.408Z,20.70
2022-10-28T11:55:47.714Z,20.50
2022-10-28T11:58:51.878Z,20.05
2022-10-28T12:01:41.161Z,19.62
2022-10-28T12:04:19.980Z,19.74
2022-10-28T12:07:05.424Z,19.78
2022-10-28T12:09:44.243Z,19.76
2022-10-28T12:12:41.391Z,19.86
2022-10-28T12:15:45.068Z,19.88
2022-10-28T12:18:27.946Z,19.82
2022-10-28T12:21:00.410Z,19.91
2022-10-28T12:23:29.443Z,20.12
2022-10-28T12:25:58.960Z,20.33
2022-10-28T12:28:30.425Z,20.73
2022-10-28T12:30:58.264Z,20.96
2022-10-28T12:33:33.866Z,21.18
2022-10-28T12:36:10.001Z,21.63
2022-10-28T12:38:55.976Z,22.02
2022-10-28T12:41:26.523Z,22.10
2022-10-28T12:44:05.174Z,21.93
2022-10-28T12:46:54.665Z,21.95
2022-10-28T12:49:31.581Z,21.90
2022-10-28T12:52:04.376Z,22.24
2022-10-28T12:54:52.681Z,22.73
2022-10-28T12:57:22.492Z,23.10
2022-10-28T12:59:55.641Z,23.19
2022-10-28T13:02:43.270Z,23.31
2022-10-28T13:05:27.661Z,22.82
2022-10-28T13:08:16.953Z,23.13
2022-10-28T13:10:49.776Z,23.38
2022-10-28T13:13:31.186Z,23.33
2022-10-28T13:16:16.909Z,23.34
2022-10-28T13:19:06.396Z,23.28
2022-10-28T13:21:49.010Z,23.25
2022-10-28T13:24:44.382Z,23.31
2022-10-28T13:27:13.727Z,23.19
2022-10-28T13:29:43.196Z,23.17
2022-10-28T13:32:38.575Z,23.09
2022-10-28T13:35:14.572Z,23.01
2022-10-28T13:37:45.346Z,22.92
2022-10-28T13:40:23.818Z,22.83
2022-10-28T13:42:50.496Z,22.75
2022-10-28T13:45:44.777Z,22.28
2022-10-28T13:48:29.674Z,22.48
2022-10-28T13:51:11.455Z,22.24
2022-10-28T13:53:47.009Z,22.17
2022-10-28T13:56:52.286Z,22.15
2022-10-28T13:59:30.951Z,22.10
2022-10-28T14:02:28.338Z,22.06
2022-10-28T14:04:56.540Z,21.47
2022-10-28T14:07:27.930Z,21.52
2022-10-28T14:09:59.270Z,21.54
2022-10-28T14:12:27.611Z,21.59
2022-10-28T14:15:02.157Z,21.59
2022-10-28T14:18:15.740Z,21.67
2022-10-28T14:20:48.460Z,21.70
2022-10-28T14:23:20.895Z,21.60
2022-10-28T14:25:50.055Z,21.69
2022-10-28T14:28:31.602Z,21.58
2022-10-28T14:31:14.424Z,21.61
2022-10-28T14:33:46.776Z,21.66
2022-10-28T14:36:19.480Z,21.66
2022-10-28T14:39:07.182Z,21.60
2022-10-28T14:41:51.848Z,21.52
2022-10-28T14:44:41.209Z,21.48
2022-10-28T14:47:19.967Z,21.28
2022-10-28T14:50:07.145Z,21.32
2022-10-28T14:52:37.048Z,21.16
2022-10-28T14:55:07.424Z,21.22
2022-10-28T14:57:34.783Z,21.18
2022-10-28T15:00:07.684Z,21.29
2022-10-28T15:02:37.531Z,21.36
2022-10-28T15:05:21.941Z,21.11
2022-10-28T15:07:48.611Z,21.26
2022-10-28T15:10:18.164Z,21.30
2022-10-28T15:12:48.867Z,21.33
2022-10-28T15:15:18.078Z,21.34
2022-10-28T15:17:44.521Z,21.19
2022-10-28T15:20:29.030Z,21.23
2022-10-28T15:23:18.877Z,21.16
2022-10-28T15:25:45.675Z,21.22
2022-10-28T15:28:13.917Z,21.14
2022-10-28T15:30:46.344Z,21.10
2022-10-28T15:33:28.381Z,21.02
2022-10-28T15:36:18.450Z,21.00
2022-10-28T15:39:17.362Z,21.00
2022-10-28T15:41:46.019Z,20.96
2022-10-28T15:44:30.637Z,21.01
2022-10-28T15:46:58.810Z,21.06
2022-10-28T15:49:33.141Z,20.97
2022-10-28T15:52:33.201Z,20.82
2022-10-28T15:55:02.658Z,20.78
2022-10-28T15:57:45.821Z,20.74
2022-10-28T16:00:23.105Z,20.78
2022-10-28T16:02:53.254Z,20.64
2022-10-28T16:05:31.902Z,20.69
2022-10-28T16:08:05.413Z,20.68
2022-10-28T16:10:36.915Z,20.69
2022-10-28T16:13:09.070Z,20.66
2022-10-28T16:15:49.318Z,20.68
2022-10-28T16:18:15.887Z,20.70
2022-10-28T16:20:44.273Z,20.60
2022-10-28T16:23:16.113Z,20.58
2022-10-28T16:25:42.625Z,20.59
2022-10-28T16:28:29.485Z,20.51
2022-10-28T16:30:58.882Z,20.54
2022-10-28T16:33:32.079Z,20.51
2022-10-28T16:35:59.310Z,20.40
2022-10-28T16:38:25.823Z,20.38
2022-10-28T16:40:53.889Z,20.38
2022-10-28T16:43:23.445Z,20.37
2022-10-28T16:45:51.856Z,20.34
2022-10-28T16:48:19.283Z,20.33
2022-10-28T16:50:54.671Z,20.34
2022-10-28T16:53:21.536Z,20.24
2022-10-28T16:55:48.463Z,20.17
2022-10-28T16:58:15.370Z,20.21
2022-10-28T17:00:42.757Z,20.19
2022-10-28T17:03:14.029Z,20.15
2022-10-28T17:05:40.906Z,20.14
2022-10-28T17:08:09.749Z,20.10
2022-10-28T17:10:37.571Z,20.08
2022-10-28T17:13:04.027Z,20.04
2022-10-28T17:15:30.518Z,20.00
2022-10-28T17:17:57.982Z,19.95
2022-10-28T17:20:24.414Z,19.90
2022-10-28T17:22:50.952Z,19.94
2022-10-28T17:25:17.597Z,19.93
2022-10-28T17:27:48.366Z,19.90
2022-10-28T17:30:17.282Z,19.87
2022-10-28T17:32:44.973Z,19.82
2022-10-28T17:35:11.909Z,19.80
2022-10-28T17:37:38.345Z,19.78
2022-10-28T17:40:05.598Z,19.77
2022-10-28T17:42:32.056Z,19.70
2022-10-28T17:44:58.538Z,19.68
2022-10-28T17:47:25.031Z,19.61
2022-10-28T17:49:51.526Z,19.63
2022-10-28T17:52:18.019Z,19.57
2022-10-28T17:54:45.174Z,19.42
2022-10-28T17:57:12.297Z,19.42
2022-10-28T17:59:38.747Z,19.45
2022-10-28T18:02:05.300Z,19.45
2022-10-28T18:04:31.875Z,19.39
2022-10-28T18:06:58.368Z,19.29
2022-10-28T18:09:25.194Z,19.26
2022-10-28T18:11:51.901Z,19.20
2022-10-28T18:14:20.505Z,19.22
2022-10-28T18:16:47.085Z,19.17
2022-10-28T18:19:13.917Z,19.21
2022-10-28T18:21:40.380Z,19.08
2022-10-28T18:24:07.331Z,19.01
2022-10-28T18:26:35.874Z,19.06
2022-10-28T18:29:04.089Z,18.94
2022-10-28T18:31:34.486Z,19.01
2022-10-28T18:34:01.749Z,19.00
2022-10-28T18:36:34.034Z,18.88
2022-10-28T18:39:00.548Z,18.79
2022-10-28T18:41:29.159Z,18.67
2022-10-28T18:44:04.423Z,18.66
2022-10-28T18:46:33.958Z,18.58
2022-10-28T18:51:33.397Z,18.50
2022-10-28T18:53:59.947Z,18.49
2022-10-28T18:56:29.297Z,18.53
2022-10-28T18:58:57.351Z,18.45
2022-10-28T19:01:28.835Z,18.44
2022-10-28T19:04:05.447Z,18.39
2022-10-28T19:06:33.765Z,18.42
2022-10-28T19:09:03.134Z,18.40
2022-10-28T19:11:31.557Z,18.46
2022-10-28T19:14:03.501Z,18.43
2022-10-28T19:16:31.299Z,18.36
2022-10-28T19:18:58.710Z,18.39
2022-10-28T19:21:26.727Z,18.35
2022-10-28T19:23:53.629Z,18.35
2022-10-28T19:26:20.723Z,18.38
2022-10-28T19:28:48.794Z,18.38
2022-10-28T19:31:20.774Z,18.39
2022-10-28T19:33:47.690Z,18.41
2022-10-28T19:36:21.276Z,18.41
2022-10-28T19:38:49.830Z,18.44
2022-10-28T19:41:21.798Z,18.45
2022-10-28T19:43:49.145Z,18.49
2022-10-28T19:46:19.981Z,18.49
2022-10-28T19:48:48.986Z,18.50
2022-10-28T19:51:18.241Z,18.48
2022-10-28T19:54:05.286Z,18.52
2022-10-28T19:56:33.835Z,18.56
2022-10-28T19:59:02.390Z,18.63
2022-10-28T20:01:31.401Z,18.57
2022-10-28T20:03:58.375Z,18.58
2022-10-28T20:06:27.122Z,18.53
2022-10-28T20:08:53.770Z,18.57
2022-10-28T20:11:25.876Z,18.55
2022-10-28T20:14:04.832Z,18.59
2022-10-28T20:16:32.692Z,18.58
2022-10-28T20:18:59.561Z,18.59
2022-10-28T20:21:28.657Z,18.59
2022-10-28T20:23:56.537Z,18.58
2022-10-28T20:26:28.380Z,18.58
2022-10-28T20:28:55.472Z,18.59
2022-10-28T20:31:24.567Z,18.58
2022-10-28T20:33:53.529Z,18.63
2022-10-28T20:36:34.697Z,18.55
2022-10-28T20:39:08.874Z,18.63
2022-10-28T20:41:37.651Z,18.52
2022-10-28T20:44:05.019Z,18.54
2022-10-28T20:46:32.504Z,18.52
2022-10-28T20:49:00.731Z,18.46
2022-10-28T20:51:29.802Z,18.42
2022-10-28T20:53:56.503Z,18.44
2022-10-28T20:56:27.824Z,18.38
2022-10-28T20:58:55.705Z,18.31
2022-10-28T21:01:25.293Z,18.22
2022-10-28T21:03:59.580Z,18.19
2022-10-28T21:06:26.466Z,18.13
2022-10-28T21:08:53.706Z,18.12
2022-10-28T21:11:20.621Z,18.17
2022-10-28T21:13:55.983Z,18.14
2022-10-28T21:16:23.206Z,18.17
2022-10-28T21:18:50.249Z,18.18
2022-10-28T21:21:17.888Z,18.19
2022-10-28T21:23:44.452Z,18.19
2022-10-28T21:26:12.476Z,18.22
2022-10-28T21:28:41.547Z,18.21
2022-10-28T21:31:14.195Z,18.19
2022-10-28T21:33:42.018Z,18.27
2022-10-28T21:36:13.776Z,18.09
2022-10-28T21:38:40.373Z,17.91
2022-10-28T21:41:18.780Z,17.81
2022-10-28T21:43:50.199Z,17.70
2022-10-28T21:46:19.627Z,17.60
2022-10-28T21:48:46.625Z,17.60
2022-10-28T21:51:15.718Z,17.57
2022-10-28T21:53:43.933Z,17.60
2022-10-28T21:56:16.549Z,17.58
2022-10-28T21:58:44.290Z,17.45
2022-10-28T22:01:22.008Z,17.40
2022-10-28T22:03:49.223Z,17.44
2022-10-28T22:06:15.768Z,17.41
2022-10-28T22:08:42.366Z,17.26
2022-10-28T22:11:13.379Z,17.44
2022-10-28T22:13:40.277Z,17.27
2022-10-28T22:16:10.237Z,17.30
2022-10-28T22:18:37.372Z,17.27
2022-10-28T22:21:12.637Z,17.20
2022-10-28T22:23:39.523Z,16.97
2022-10-28T22:26:14.037Z,16.88
2022-10-28T22:28:40.562Z,16.78
2022-10-28T22:31:09.826Z,16.76
2022-10-28T22:33:37.056Z,16.71
2022-10-28T22:36:06.381Z,16.67
2022-10-28T22:38:33.324Z,16.84
2022-10-28T22:41:33.258Z,16.90
2022-10-28T22:44:01.827Z,16.89
2022-10-28T22:46:31.690Z,16.96
2022-10-28T22:48:58.223Z,16.92
2022-10-28T22:51:24.692Z,16.82
2022-10-28T22:53:51.384Z,16.72
2022-10-28T22:56:23.496Z,16.66
2022-10-28T22:58:55.435Z,16.59
2022-10-28T23:01:23.457Z,16.57
2022-10-28T23:09:34.415Z,16.69
2022-10-28T23:12:00.847Z,16.71
2022-10-28T23:14:27.269Z,16.55
2022-10-28T23:16:53.732Z,16.65
2022-10-28T23:19:20.171Z,16.61
2022-10-28T23:21:46.595Z,16.55
2022-10-28T23:24:13.063Z,16.42
2022-10-28T23:26:39.566Z,16.56
2022-10-28T23:29:06.361Z,16.55
2022-10-28T23:31:33.045Z,16.45
2022-10-28T23:33:59.910Z,16.42
2022-10-28T23:36:26.341Z,16.38
2022-10-28T23:38:53.897Z,16.13
2022-10-28T23:41:21.074Z,16.20
2022-10-28T23:43:48.764Z,16.22
2022-10-28T23:46:15.511Z,16.25
2022-10-28T23:48:42.062Z,16.22
2022-10-28T23:51:08.573Z,16.16
2022-10-28T23:53:35.233Z,16.10
2022-10-28T23:56:01.743Z,16.15
2022-10-28T23:58:28.214Z,16.00
